sensor_id;sensor_type;location;lat;lon;timestamp;pressure;altitude;pressure_sealevel;temperature;humidity
24306;BME280;12423;48.768;8.850;2022-09-24T00:01:18;96726.81;;;10.49;100.00
24306;BME280;12423;48.768;8.850;2022-09-24T00:03:20;96731.31;;;10.48;100.00
24306;BME280;12423;48.768;8.850;2022-09-24T00:05:21;96723.03;;;10.51;100.00
24306;BME280;12423;48.768;8.850;2022-09-24T00:07:22;96721.22;;;10.52;100.00
24306;BME280;12423;48.768;8.850;2022-09-24T00:09:23;96718.94;;;10.47;100.00
24306;BME280;12423;48.768;8.850;2022-09-24T00:11:26;96720.66;;;10.48;100.00
24306;BME280;12423;48.768;8.850;2022-09-24T00:13:28;96724.88;;;10.51;100.00
24306;BME280;12423;48.768;8.850;2022-09-24T00:15:30;96719.69;;;10.49;100.00
24306;BME280;12423;48.768;8.850;2022-09-24T00:17:31;96715.31;;;10.48;100.00
24306;BME280;12423;48.768;8.850;2022-09-24T00:19:32;96718.25;;;10.45;100.00
24306;BME280;12423;48.768;8.850;2022-09-24T00:21:34;96717.00;;;10.49;100.00
24306;BME280;12423;48.768;8.850;2022-09-24T00:23:35;96711.66;;;10.49;100.00
24306;BME280;12423;48.768;8.850;2022-09-24T00:25:41;96715.16;;;10.50;100.00
24306;BME280;12423;48.768;8.850;2022-09-24T00:28:00;96717.00;;;10.49;100.00
24306;BME280;12423;48.768;8.850;2022-09-24T00:30:01;96708.84;;;10.41;100.00
24306;BME280;12423;48.768;8.850;2022-09-24T00:32:04;96705.59;;;10.38;100.00
24306;BME280;12423;48.768;8.850;2022-09-24T00:34:05;96708.56;;;10.35;100.00
24306;BME280;12423;48.768;8.850;2022-09-24T00:36:06;96709.66;;;10.32;100.00
24306;BME280;12423;48.768;8.850;2022-09-24T00:38:07;96711.03;;;10.26;100.00
24306;BME280;12423;48.768;8.850;2022-09-24T00:40:09;96708.25;;;10.28;100.00
24306;BME280;12423;48.768;8.850;2022-09-24T00:42:11;96707.50;;;10.26;100.00
24306;BME280;12423;48.768;8.850;2022-09-24T00:46:40;96698.66;;;10.15;100.00
24306;BME280;12423;48.768;8.850;2022-09-24T00:48:43;96691.91;;;10.11;100.00
24306;BME280;12423;48.768;8.850;2022-09-24T00:50:45;96688.78;;;10.06;100.00
24306;BME280;12423;48.768;8.850;2022-09-24T00:52:53;96682.59;;;9.96;100.00
24306;BME280;12423;48.768;8.850;2022-09-24T00:54:56;96681.91;;;9.94;100.00
24306;BME280;12423;48.768;8.850;2022-09-24T00:56:58;96682.72;;;9.94;100.00
24306;BME280;12423;48.768;8.850;2022-09-24T00:59:01;96685.41;;;9.94;100.00
24306;BME280;12423;48.768;8.850;2022-09-24T01:01:05;96684.13;;;9.89;100.00
24306;BME280;12423;48.768;8.850;2022-09-24T01:03:19;96687.06;;;9.86;100.00
24306;BME280;12423;48.768;8.850;2022-09-24T01:05:22;96687.78;;;9.88;100.00
24306;BME280;12423;48.768;8.850;2022-09-24T01:07:23;96686.78;;;9.79;100.00
24306;BME280;12423;48.768;8.850;2022-09-24T01:09:26;96684.63;;;9.73;100.00
24306;BME280;12423;48.768;8.850;2022-09-24T01:14:06;96669.47;;;9.64;100.00
24306;BME280;12423;48.768;8.850;2022-09-24T01:31:01;96656.53;;;9.59;100.00
24306;BME280;12423;48.768;8.850;2022-09-24T01:33:08;96652.69;;;9.52;100.00
24306;BME280;12423;48.768;8.850;2022-09-24T01:37:22;96636.03;;;9.59;100.00
24306;BME280;12423;48.768;8.850;2022-09-24T01:39:24;96646.13;;;9.56;100.00
24306;BME280;12423;48.768;8.850;2022-09-24T01:41:27;96638.13;;;9.56;100.00
24306;BME280;12423;48.768;8.850;2022-09-24T01:43:28;96651.06;;;9.61;100.00
24306;BME280;12423;48.768;8.850;2022-09-24T01:45:30;96636.59;;;9.63;100.00
24306;BME280;12423;48.768;8.850;2022-09-24T01:47:38;96635.91;;;9.61;100.00
24306;BME280;12423;48.768;8.850;2022-09-24T01:49:39;96634.66;;;9.65;100.00
24306;BME280;12423;48.768;8.850;2022-09-24T01:51:45;96631.00;;;9.66;100.00
24306;BME280;12423;48.768;8.850;2022-09-24T01:53:53;96632.53;;;9.59;100.00
24306;BME280;12423;48.768;8.850;2022-09-24T01:56:03;96630.69;;;9.59;100.00
24306;BME280;12423;48.768;8.850;2022-09-24T01:58:10;96629.59;;;9.62;100.00
24306;BME280;12423;48.768;8.850;2022-09-24T02:00:16;96620.47;;;9.65;100.00
24306;BME280;12423;48.768;8.850;2022-09-24T02:02:23;96616.84;;;9.66;100.00
24306;BME280;12423;48.768;8.850;2022-09-24T02:04:29;96613.91;;;9.69;100.00
24306;BME280;12423;48.768;8.850;2022-09-24T02:06:38;96617.66;;;9.66;100.00
24306;BME280;12423;48.768;8.850;2022-09-24T02:08:42;96608.44;;;9.70;100.00
24306;BME280;12423;48.768;8.850;2022-09-24T02:10:49;96611.94;;;9.71;100.00
24306;BME280;12423;48.768;8.850;2022-09-24T02:12:57;96612.75;;;9.71;100.00
24306;BME280;12423;48.768;8.850;2022-09-24T02:15:15;96619.53;;;9.75;100.00
24306;BME280;12423;48.768;8.850;2022-09-24T02:17:17;96615.44;;;9.71;100.00
24306;BME280;12423;48.768;8.850;2022-09-24T02:19:23;96617.00;;;9.84;100.00
24306;BME280;12423;48.768;8.850;2022-09-24T02:21:26;96614.88;;;9.77;100.00
24306;BME280;12423;48.768;8.850;2022-09-24T02:23:30;96610.25;;;9.80;100.00
24306;BME280;12423;48.768;8.850;2022-09-24T02:25:39;96613.47;;;9.83;100.00
24306;BME280;12423;48.768;8.850;2022-09-24T02:27:41;96612.91;;;9.80;100.00
24306;BME280;12423;48.768;8.850;2022-09-24T02:29:43;96617.41;;;9.79;100.00
24306;BME280;12423;48.768;8.850;2022-09-24T02:31:47;96605.06;;;9.78;100.00
24306;BME280;12423;48.768;8.850;2022-09-24T02:33:49;96597.19;;;9.76;100.00
24306;BME280;12423;48.768;8.850;2022-09-24T02:36:10;96602.53;;;9.76;100.00
24306;BME280;12423;48.768;8.850;2022-09-24T02:38:15;96606.19;;;9.75;100.00
24306;BME280;12423;48.768;8.850;2022-09-24T02:40:16;96603.09;;;9.70;100.00
24306;BME280;12423;48.768;8.850;2022-09-24T02:42:18;96605.63;;;9.72;100.00
24306;BME280;12423;48.768;8.850;2022-09-24T02:44:20;96612.50;;;9.74;100.00
24306;BME280;12423;48.768;8.850;2022-09-24T02:46:21;96612.22;;;9.77;100.00
24306;BME280;12423;48.768;8.850;2022-09-24T02:48:22;96610.66;;;9.75;100.00
24306;BME280;12423;48.768;8.850;2022-09-24T02:50:23;96614.31;;;9.74;100.00
24306;BME280;12423;48.768;8.850;2022-09-24T02:52:24;96603.38;;;9.77;100.00
24306;BME280;12423;48.768;8.850;2022-09-24T02:54:25;96606.06;;;9.77;100.00
24306;BME280;12423;48.768;8.850;2022-09-24T02:56:27;96612.91;;;9.80;100.00
24306;BME280;12423;48.768;8.850;2022-09-24T02:58:29;96605.34;;;9.85;100.00
24306;BME280;12423;48.768;8.850;2022-09-24T03:00:30;96604.38;;;9.86;100.00
24306;BME280;12423;48.768;8.850;2022-09-24T03:02:31;96596.94;;;9.89;100.00
24306;BME280;12423;48.768;8.850;2022-09-24T03:04:32;96593.56;;;9.87;100.00
24306;BME280;12423;48.768;8.850;2022-09-24T03:06:33;96589.75;;;9.90;100.00
24306;BME280;12423;48.768;8.850;2022-09-24T03:08:34;96585.44;;;9.89;100.00
24306;BME280;12423;48.768;8.850;2022-09-24T03:10:36;96589.06;;;9.88;100.00
24306;BME280;12423;48.768;8.850;2022-09-24T03:12:36;96586.38;;;9.88;100.00
24306;BME280;12423;48.768;8.850;2022-09-24T03:14:37;96584.41;;;9.90;100.00
24306;BME280;12423;48.768;8.850;2022-09-24T03:16:38;96590.75;;;9.89;100.00
24306;BME280;12423;48.768;8.850;2022-09-24T03:18:39;96588.78;;;9.91;100.00
24306;BME280;12423;48.768;8.850;2022-09-24T03:20:40;96588.94;;;9.89;100.00
24306;BME280;12423;48.768;8.850;2022-09-24T03:22:41;96585.97;;;9.92;100.00
24306;BME280;12423;48.768;8.850;2022-09-24T03:24:43;96574.47;;;9.92;100.00
24306;BME280;12423;48.768;8.850;2022-09-24T03:26:44;96578.69;;;9.94;100.00
24306;BME280;12423;48.768;8.850;2022-09-24T03:28:45;96576.41;;;9.90;100.00
24306;BME280;12423;48.768;8.850;2022-09-24T03:30:46;96575.88;;;9.96;100.00
24306;BME280;12423;48.768;8.850;2022-09-24T03:32:59;96576.88;;;9.95;100.00
24306;BME280;12423;48.768;8.850;2022-09-24T03:35:00;96575.03;;;9.95;100.00
24306;BME280;12423;48.768;8.850;2022-09-24T03:37:02;96583.03;;;9.95;100.00
24306;BME280;12423;48.768;8.850;2022-09-24T03:39:03;96571.09;;;9.90;100.00
24306;BME280;12423;48.768;8.850;2022-09-24T03:41:05;96578.38;;;9.88;100.00
24306;BME280;12423;48.768;8.850;2022-09-24T03:43:07;96578.66;;;9.85;100.00
24306;BME280;12423;48.768;8.850;2022-09-24T03:45:08;96575.03;;;9.86;100.00
24306;BME280;12423;48.768;8.850;2022-09-24T03:47:09;96578.97;;;9.82;100.00
24306;BME280;12423;48.768;8.850;2022-09-24T03:49:10;96579.53;;;9.85;100.00
24306;BME280;12423;48.768;8.850;2022-09-24T03:51:14;96575.03;;;9.86;100.00
24306;BME280;12423;48.768;8.850;2022-09-24T03:53:16;96572.09;;;9.89;100.00
24306;BME280;12423;48.768;8.850;2022-09-24T03:55:17;96571.09;;;9.90;100.00
24306;BME280;12423;48.768;8.850;2022-09-24T03:57:18;96574.19;;;9.95;100.00
24306;BME280;12423;48.768;8.850;2022-09-24T03:59:19;96578.81;;;9.93;100.00
24306;BME280;12423;48.768;8.850;2022-09-24T04:01:20;96576.41;;;9.90;100.00
24306;BME280;12423;48.768;8.850;2022-09-24T04:03:21;96572.50;;;9.94;100.00
24306;BME280;12423;48.768;8.850;2022-09-24T04:05:23;96569.41;;;9.89;100.00
24306;BME280;12423;48.768;8.850;2022-09-24T04:07:23;96573.34;;;9.94;100.00
24306;BME280;12423;48.768;8.850;2022-09-24T04:09:25;96579.97;;;10.00;100.00
24306;BME280;12423;48.768;8.850;2022-09-24T04:11:26;96571.97;;;10.00;100.00
24306;BME280;12423;48.768;8.850;2022-09-24T04:13:27;96566.47;;;10.02;100.00
24306;BME280;12423;48.768;8.850;2022-09-24T04:15:28;96566.75;;;9.99;100.00
24306;BME280;12423;48.768;8.850;2022-09-24T04:17:29;96563.22;;;9.98;100.00
24306;BME280;12423;48.768;8.850;2022-09-24T04:19:33;96565.47;;;9.93;100.00
24306;BME280;12423;48.768;8.850;2022-09-24T04:21:34;96564.91;;;9.99;100.00
24306;BME280;12423;48.768;8.850;2022-09-24T04:23:35;96566.63;;;10.00;100.00
24306;BME280;12423;48.768;8.850;2022-09-24T04:25:36;96553.28;;;10.00;100.00
24306;BME280;12423;48.768;8.850;2022-09-24T04:27:37;96550.34;;;10.03;100.00
24306;BME280;12423;48.768;8.850;2022-09-24T04:29:39;96550.34;;;10.03;100.00
24306;BME280;12423;48.768;8.850;2022-09-24T04:31:39;96545.00;;;10.03;100.00
24306;BME280;12423;48.768;8.850;2022-09-24T04:33:40;96545.53;;;9.97;100.00
24306;BME280;12423;48.768;8.850;2022-09-24T04:35:41;96543.72;;;9.98;100.00
24306;BME280;12423;48.768;8.850;2022-09-24T04:37:42;96545.53;;;9.97;100.00
24306;BME280;12423;48.768;8.850;2022-09-24T04:39:43;96550.31;;;9.93;100.00
24306;BME280;12423;48.768;8.850;2022-09-24T04:41:44;96545.13;;;9.92;100.00
24306;BME280;12423;48.768;8.850;2022-09-24T04:43:46;96540.75;;;9.91;100.00
24306;BME280;12423;48.768;8.850;2022-09-24T04:45:47;96545.69;;;9.95;100.00
24306;BME280;12423;48.768;8.850;2022-09-24T04:47:49;96547.53;;;9.95;100.00
24306;BME280;12423;48.768;8.850;2022-09-24T04:49:53;96547.78;;;9.92;100.00
24306;BME280;12423;48.768;8.850;2022-09-24T04:51:54;96541.47;;;9.93;100.00
24306;BME280;12423;48.768;8.850;2022-09-24T04:53:57;96545.97;;;9.92;100.00
24306;BME280;12423;48.768;8.850;2022-09-24T04:55:59;96547.50;;;9.85;100.00
24306;BME280;12423;48.768;8.850;2022-09-24T04:58:00;96547.38;;;9.87;100.00
24306;BME280;12423;48.768;8.850;2022-09-24T05:00:07;96547.22;;;9.78;100.00
24306;BME280;12423;48.768;8.850;2022-09-24T05:02:08;96539.09;;;9.80;100.00
24306;BME280;12423;48.768;8.850;2022-09-24T05:04:09;96545.41;;;9.79;100.00
24306;BME280;12423;48.768;8.850;2022-09-24T05:06:10;96551.28;;;9.83;100.00
24306;BME280;12423;48.768;8.850;2022-09-24T05:08:11;96550.19;;;9.85;100.00
24306;BME280;12423;48.768;8.850;2022-09-24T05:10:13;96555.78;;;9.82;100.00
24306;BME280;12423;48.768;8.850;2022-09-24T05:12:14;96552.00;;;9.85;100.00
24306;BME280;12423;48.768;8.850;2022-09-24T05:14:15;96558.75;;;9.89;100.00
24306;BME280;12423;48.768;8.850;2022-09-24T05:16:15;96555.06;;;9.90;100.00
24306;BME280;12423;48.768;8.850;2022-09-24T05:18:16;96559.31;;;9.92;100.00
24306;BME280;12423;48.768;8.850;2022-09-24T05:20:17;96567.03;;;9.95;100.00
24306;BME280;12423;48.768;8.850;2022-09-24T05:22:18;96559.84;;;9.96;100.00
24306;BME280;12423;48.768;8.850;2022-09-24T05:24:20;96558.06;;;9.96;100.00
24306;BME280;12423;48.768;8.850;2022-09-24T05:26:21;96562.53;;;9.96;100.00
24306;BME280;12423;48.768;8.850;2022-09-24T05:28:40;96563.22;;;9.98;100.00
24306;BME280;12423;48.768;8.850;2022-09-24T05:30:42;96562.94;;;10.01;100.00
24306;BME280;12423;48.768;8.850;2022-09-24T05:32:43;96566.06;;;9.96;100.00
24306;BME280;12423;48.768;8.850;2022-09-24T05:34:45;96570.25;;;9.99;100.00
24306;BME280;12423;48.768;8.850;2022-09-24T05:36:46;96571.81;;;9.92;100.00
24306;BME280;12423;48.768;8.850;2022-09-24T05:38:47;96576.44;;;10.00;100.00
24306;BME280;12423;48.768;8.850;2022-09-24T05:40:49;96564.91;;;9.99;100.00
24306;BME280;12423;48.768;8.850;2022-09-24T05:42:50;96573.34;;;10.04;100.00
24306;BME280;12423;48.768;8.850;2022-09-24T05:44:51;96574.63;;;10.10;100.00
24306;BME280;12423;48.768;8.850;2022-09-24T05:46:53;96576.28;;;10.11;100.00
24306;BME280;12423;48.768;8.850;2022-09-24T05:48:54;96575.19;;;10.13;100.00
24306;BME280;12423;48.768;8.850;2022-09-24T05:50:55;96573.91;;;10.18;100.00
24306;BME280;12423;48.768;8.850;2022-09-24T05:52:56;96575.59;;;10.19;100.00
24306;BME280;12423;48.768;8.850;2022-09-24T05:54:58;96575.59;;;10.19;100.00
24306;BME280;12423;48.768;8.850;2022-09-24T05:56:59;96564.78;;;10.20;100.00
24306;BME280;12423;48.768;8.850;2022-09-24T05:59:00;96570.13;;;10.20;100.00
24306;BME280;12423;48.768;8.850;2022-09-24T06:01:01;96574.47;;;10.21;100.00
24306;BME280;12423;48.768;8.850;2022-09-24T06:03:04;96573.34;;;10.24;100.00
24306;BME280;12423;48.768;8.850;2022-09-24T06:05:06;96569.72;;;10.25;100.00
24306;BME280;12423;48.768;8.850;2022-09-24T06:07:07;96568.69;;;10.26;100.00
24306;BME280;12423;48.768;8.850;2022-09-24T06:09:08;96575.31;;;10.31;100.00
24306;BME280;12423;48.768;8.850;2022-09-24T06:11:09;96572.53;;;10.33;100.00
24306;BME280;12423;48.768;8.850;2022-09-24T06:13:11;96583.78;;;10.37;100.00
24306;BME280;12423;48.768;8.850;2022-09-24T06:15:12;96587.81;;;10.41;100.00
24306;BME280;12423;48.768;8.850;2022-09-24T06:17:13;96592.75;;;10.45;100.00
24306;BME280;12423;48.768;8.850;2022-09-24T06:19:14;96589.94;;;10.47;100.00
24306;BME280;12423;48.768;8.850;2022-09-24T06:21:15;96590.34;;;10.52;100.00
24306;BME280;12423;48.768;8.850;2022-09-24T06:23:19;96589.22;;;10.55;100.00
24306;BME280;12423;48.768;8.850;2022-09-24T06:25:20;96589.66;;;10.60;100.00
24306;BME280;12423;48.768;8.850;2022-09-24T06:27:21;96595.00;;;10.60;100.00
24306;BME280;12423;48.768;8.850;2022-09-24T06:29:22;96590.19;;;10.63;100.00
24306;BME280;12423;48.768;8.850;2022-09-24T06:31:23;96594.28;;;10.67;100.00
24306;BME280;12423;48.768;8.850;2022-09-24T06:33:24;96591.88;;;10.64;100.00
24306;BME280;12423;48.768;8.850;2022-09-24T06:35:25;96597.50;;;10.71;100.00
24306;BME280;12423;48.768;8.850;2022-09-24T06:37:26;96592.56;;;10.76;100.00
24306;BME280;12423;48.768;8.850;2022-09-24T06:39:27;96598.88;;;10.75;100.00
24306;BME280;12423;48.768;8.850;2022-09-24T06:41:28;96606.75;;;10.77;100.00
24306;BME280;12423;48.768;8.850;2022-09-24T06:43:29;96598.75;;;10.77;100.00
24306;BME280;12423;48.768;8.850;2022-09-24T06:45:30;96602.53;;;10.84;100.00
24306;BME280;12423;48.768;8.850;2022-09-24T06:47:31;96604.75;;;10.88;100.00
24306;BME280;12423;48.768;8.850;2022-09-24T06:49:32;96602.34;;;10.95;100.00
24306;BME280;12423;48.768;8.850;2022-09-24T06:51:34;96599.25;;;11.00;100.00
24306;BME280;12423;48.768;8.850;2022-09-24T06:53:35;96588.94;;;11.05;100.00
24306;BME280;12423;48.768;8.850;2022-09-24T06:55:37;96594.41;;;11.13;100.00
24306;BME280;12423;48.768;8.850;2022-09-24T06:57:38;96590.91;;;11.13;100.00
24306;BME280;12423;48.768;8.850;2022-09-24T06:59:39;96595.53;;;11.20;100.00
24306;BME280;12423;48.768;8.850;2022-09-24T07:01:40;96598.75;;;11.24;100.00
24306;BME280;12423;48.768;8.850;2022-09-24T07:03:41;96607.31;;;11.28;100.00
24306;BME280;12423;48.768;8.850;2022-09-24T07:05:42;96600.84;;;11.30;100.00
24306;BME280;12423;48.768;8.850;2022-09-24T07:07:43;96606.34;;;11.29;100.00
24306;BME280;12423;48.768;8.850;2022-09-24T07:09:44;96604.19;;;11.32;100.00
24306;BME280;12423;48.768;8.850;2022-09-24T07:11:45;96609.66;;;11.40;100.00
24306;BME280;12423;48.768;8.850;2022-09-24T07:13:46;96607.66;;;11.42;100.00
24306;BME280;12423;48.768;8.850;2022-09-24T07:15:49;96600.19;;;11.46;100.00
24306;BME280;12423;48.768;8.850;2022-09-24T07:17:55;96605.09;;;11.51;100.00
24306;BME280;12423;48.768;8.850;2022-09-24T07:19:56;96607.03;;;11.58;100.00
24306;BME280;12423;48.768;8.850;2022-09-24T07:21:57;96603.88;;;11.63;100.00
24306;BME280;12423;48.768;8.850;2022-09-24T07:23:58;96608.09;;;11.66;100.00
24306;BME280;12423;48.768;8.850;2022-09-24T07:25:59;96614.63;;;11.81;100.00
24306;BME280;12423;48.768;8.850;2022-09-24T07:28:11;96613.34;;;11.85;100.00
24306;BME280;12423;48.768;8.850;2022-09-24T07:30:12;96614.34;;;11.84;100.00
24306;BME280;12423;48.768;8.850;2022-09-24T07:32:16;96614.88;;;11.88;100.00
24306;BME280;12423;48.768;8.850;2022-09-24T07:34:17;96621.50;;;11.93;100.00
24306;BME280;12423;48.768;8.850;2022-09-24T07:36:18;96622.19;;;11.95;100.00
24306;BME280;12423;48.768;8.850;2022-09-24T07:38:19;96627.53;;;11.95;100.00
24306;BME280;12423;48.768;8.850;2022-09-24T07:40:21;96631.91;;;11.96;100.00
24306;BME280;12423;48.768;8.850;2022-09-24T07:42:24;96625.94;;;12.03;100.00
24306;BME280;12423;48.768;8.850;2022-09-24T07:44:25;96634.03;;;12.11;100.00
24306;BME280;12423;48.768;8.850;2022-09-24T07:46:26;96631.06;;;12.14;100.00
24306;BME280;12423;48.768;8.850;2022-09-24T07:48:27;96623.91;;;12.14;100.00
24306;BME280;12423;48.768;8.850;2022-09-24T07:50:30;96641.19;;;12.20;100.00
24306;BME280;12423;48.768;8.850;2022-09-24T07:52:31;96635.38;;;12.25;100.00
24306;BME280;12423;48.768;8.850;2022-09-24T07:54:32;96639.25;;;12.30;100.00
24306;BME280;12423;48.768;8.850;2022-09-24T07:56:33;96631.75;;;12.34;100.00
24306;BME280;12423;48.768;8.850;2022-09-24T07:58:34;96629.34;;;12.41;100.00
24306;BME280;12423;48.768;8.850;2022-09-24T08:00:35;96635.75;;;12.48;100.00
24306;BME280;12423;48.768;8.850;2022-09-24T08:02:36;96639.50;;;12.55;100.00
24306;BME280;12423;48.768;8.850;2022-09-24T08:04:37;96643.94;;;12.64;100.00
24306;BME280;12423;48.768;8.850;2022-09-24T08:06:38;96633.59;;;12.69;100.00
24306;BME280;12423;48.768;8.850;2022-09-24T08:08:39;96633.50;;;12.79;100.00
24306;BME280;12423;48.768;8.850;2022-09-24T08:10:41;96634.03;;;12.83;100.00
24306;BME280;12423;48.768;8.850;2022-09-24T08:12:42;96635.78;;;12.92;100.00
24306;BME280;12423;48.768;8.850;2022-09-24T08:14:43;96631.31;;;13.01;100.00
24306;BME280;12423;48.768;8.850;2022-09-24T08:16:44;96631.34;;;13.09;100.00
24306;BME280;12423;48.768;8.850;2022-09-24T08:18:46;96626.34;;;13.32;100.00
24306;BME280;12423;48.768;8.850;2022-09-24T08:20:47;96633.28;;;13.43;100.00
24306;BME280;12423;48.768;8.850;2022-09-24T08:22:48;96627.25;;;13.49;100.00
24306;BME280;12423;48.768;8.850;2022-09-24T08:24:49;96630.63;;;13.59;100.00
24306;BME280;12423;48.768;8.850;2022-09-24T08:26:50;96633.34;;;13.68;100.00
24306;BME280;12423;48.768;8.850;2022-09-24T08:28:51;96636.22;;;13.66;100.00
24306;BME280;12423;48.768;8.850;2022-09-24T08:30:56;96632.22;;;13.70;100.00
24306;BME280;12423;48.768;8.850;2022-09-24T08:32:58;96634.59;;;13.81;100.00
24306;BME280;12423;48.768;8.850;2022-09-24T08:34:59;96633.44;;;13.92;100.00
24306;BME280;12423;48.768;8.850;2022-09-24T08:37:00;96634.34;;;14.09;100.00
24306;BME280;12423;48.768;8.850;2022-09-24T08:39:01;96634.38;;;14.17;100.00
24306;BME280;12423;48.768;8.850;2022-09-24T08:45:33;96640.28;;;14.29;100.00
24306;BME280;12423;48.768;8.850;2022-09-24T08:48:14;96644.63;;;14.14;100.00
24306;BME280;12423;48.768;8.850;2022-09-24T08:50:30;96639.72;;;14.09;100.00
24306;BME280;12423;48.768;8.850;2022-09-24T08:52:48;96642.75;;;14.06;100.00
24306;BME280;12423;48.768;8.850;2022-09-24T08:54:53;96641.91;;;14.06;100.00
24306;BME280;12423;48.768;8.850;2022-09-24T08:56:54;96638.00;;;14.00;100.00
24306;BME280;12423;48.768;8.850;2022-09-24T09:05:52;96636.00;;;14.02;100.00
24306;BME280;12423;48.768;8.850;2022-09-24T09:08:01;96645.09;;;14.09;100.00
24306;BME280;12423;48.768;8.850;2022-09-24T09:12:26;96643.06;;;14.03;100.00
24306;BME280;12423;48.768;8.850;2022-09-24T09:14:40;96647.09;;;14.07;100.00
24306;BME280;12423;48.768;8.850;2022-09-24T09:16:51;96644.75;;;14.04;100.00
24306;BME280;12423;48.768;8.850;2022-09-24T09:18:58;96648.13;;;14.06;100.00
24306;BME280;12423;48.768;8.850;2022-09-24T09:21:12;96647.31;;;14.14;100.00
24306;BME280;12423;48.768;8.850;2022-09-24T09:23:29;96640.06;;;14.14;100.00
24306;BME280;12423;48.768;8.850;2022-09-24T09:25:34;96640.59;;;14.18;100.00
24306;BME280;12423;48.768;8.850;2022-09-24T09:27:35;96643.63;;;14.23;100.00
24306;BME280;12423;48.768;8.850;2022-09-24T09:29:36;96643.28;;;14.26;100.00
24306;BME280;12423;48.768;8.850;2022-09-24T09:31:48;96648.50;;;14.36;100.00
24306;BME280;12423;48.768;8.850;2022-09-24T09:34:19;96642.31;;;14.44;100.00
24306;BME280;12423;48.768;8.850;2022-09-24T09:38:44;96640.47;;;14.52;100.00
24306;BME280;12423;48.768;8.850;2022-09-24T09:42:59;96626.91;;;14.79;100.00
24306;BME280;12423;48.768;8.850;2022-09-24T09:45:28;96629.75;;;15.02;100.00
24306;BME280;12423;48.768;8.850;2022-09-24T09:47:53;96630.88;;;15.24;100.00
24306;BME280;12423;48.768;8.850;2022-09-24T09:49:56;96625.78;;;15.37;100.00
24306;BME280;12423;48.768;8.850;2022-09-24T09:52:03;96632.03;;;15.38;100.00
24306;BME280;12423;48.768;8.850;2022-09-24T09:54:09;96643.47;;;15.40;100.00
24306;BME280;12423;48.768;8.850;2022-09-24T09:56:11;96633.69;;;15.47;100.00
24306;BME280;12423;48.768;8.850;2022-09-24T09:58:22;96626.28;;;15.41;100.00
24306;BME280;12423;48.768;8.850;2022-09-24T10:00:34;96632.19;;;15.44;100.00
24306;BME280;12423;48.768;8.850;2022-09-24T10:02:39;96628.47;;;15.45;100.00
24306;BME280;12423;48.768;8.850;2022-09-24T10:04:43;96628.59;;;15.52;100.00
24306;BME280;12423;48.768;8.850;2022-09-24T10:06:44;96633.31;;;15.58;100.00
24306;BME280;12423;48.768;8.850;2022-09-24T10:08:45;96627.25;;;15.56;100.00
24306;BME280;12423;48.768;8.850;2022-09-24T10:10:52;96627.09;;;15.58;100.00
24306;BME280;12423;48.768;8.850;2022-09-24T10:13:08;96628.44;;;15.54;100.00
24306;BME280;12423;48.768;8.850;2022-09-24T10:15:17;96622.19;;;15.61;100.00
24306;BME280;12423;48.768;8.850;2022-09-24T10:17:31;96617.66;;;15.54;100.00
24306;BME280;12423;48.768;8.850;2022-09-24T10:19:34;96616.59;;;15.71;100.00
24306;BME280;12423;48.768;8.850;2022-09-24T10:21:36;96622.47;;;15.75;100.00
24306;BME280;12423;48.768;8.850;2022-09-24T10:23:42;96621.34;;;15.77;100.00
24306;BME280;12423;48.768;8.850;2022-09-24T10:25:52;96629.69;;;15.91;100.00
24306;BME280;12423;48.768;8.850;2022-09-24T10:27:58;96627.34;;;15.88;100.00
24306;BME280;12423;48.768;8.850;2022-09-24T10:30:20;96623.78;;;15.87;100.00
24306;BME280;12423;48.768;8.850;2022-09-24T10:32:33;96630.22;;;15.86;100.00
24306;BME280;12423;48.768;8.850;2022-09-24T10:34:34;96622.69;;;15.65;100.00
24306;BME280;12423;48.768;8.850;2022-09-24T10:36:35;96626.56;;;15.62;100.00
24306;BME280;12423;48.768;8.850;2022-09-24T10:38:36;96627.22;;;15.73;100.00
24306;BME280;12423;48.768;8.850;2022-09-24T10:40:38;96634.06;;;15.75;100.00
24306;BME280;12423;48.768;8.850;2022-09-24T10:42:39;96633.94;;;15.77;100.00
24306;BME280;12423;48.768;8.850;2022-09-24T10:44:40;96630.56;;;15.83;100.00
24306;BME280;12423;48.768;8.850;2022-09-24T10:47:14;96631.25;;;15.69;100.00
24306;BME280;12423;48.768;8.850;2022-09-24T10:49:47;96624.75;;;16.02;100.00
24306;BME280;12423;48.768;8.850;2022-09-24T10:54:04;96636.63;;;15.77;100.00
24306;BME280;12423;48.768;8.850;2022-09-24T10:58:50;96631.56;;;15.74;100.00
24306;BME280;12423;48.768;8.850;2022-09-24T11:01:23;96623.16;;;15.69;100.00
24306;BME280;12423;48.768;8.850;2022-09-24T11:05:52;96628.38;;;15.78;100.00
24306;BME280;12423;48.768;8.850;2022-09-24T11:08:03;96629.56;;;15.84;100.00
24306;BME280;12423;48.768;8.850;2022-09-24T11:12:49;96625.69;;;15.70;100.00
24306;BME280;12423;48.768;8.850;2022-09-24T11:15:02;96630.41;;;15.76;100.00
24306;BME280;12423;48.768;8.850;2022-09-24T11:17:18;96624.38;;;15.66;100.00
24306;BME280;12423;48.768;8.850;2022-09-24T11:22:05;96628.94;;;15.57;100.00
24306;BME280;12423;48.768;8.850;2022-09-24T11:24:47;96629.81;;;15.50;100.00
24306;BME280;12423;48.768;8.850;2022-09-24T11:31:40;96635.06;;;15.43;100.00
24306;BME280;12423;48.768;8.850;2022-09-24T11:34:01;96628.13;;;15.48;100.00
24306;BME280;12423;48.768;8.850;2022-09-24T11:36:32;96630.16;;;15.46;100.00
24306;BME280;12423;48.768;8.850;2022-09-24T11:38:49;96627.47;;;15.38;100.00
24306;BME280;12423;48.768;8.850;2022-09-24T11:48:16;96623.16;;;15.13;100.00
24306;BME280;12423;48.768;8.850;2022-09-24T11:52:46;96626.00;;;15.11;100.00
24306;BME280;12423;48.768;8.850;2022-09-24T11:57:14;96621.34;;;15.05;100.00
24306;BME280;12423;48.768;8.850;2022-09-24T11:59:43;96620.81;;;15.01;100.00
24306;BME280;12423;48.768;8.850;2022-09-24T12:01:49;96619.00;;;15.02;100.00
24306;BME280;12423;48.768;8.850;2022-09-24T12:04:08;96613.97;;;14.90;100.00